sensor_id;sensor_type;location;lat;lon;timestamp;P1;durP1;ratioP1;P2;durP2;ratioP2
15398;SDS011;7797;51.428;6.756;2024-01-30T00:00:02;5.93;;;5.33;;
15398;SDS011;7797;51.428;6.756;2024-01-30T00:02:31;6.57;;;5.97;;
15398;SDS011;7797;51.428;6.756;2024-01-30T00:04:58;7.13;;;5.20;;
15398;SDS011;7797;51.428;6.756;2024-01-30T00:07:25;5.63;;;5.07;;
15398;SDS011;7797;51.428;6.756;2024-01-30T00:09:52;8.83;;;5.67;;
15398;SDS011;7797;51.428;6.756;2024-01-30T00:12:19;6.97;;;5.03;;
15398;SDS011;7797;51.428;6.756;2024-01-30T00:14:46;6.50;;;5.13;;
15398;SDS011;7797;51.428;6.756;2024-01-30T00:17:14;7.50;;;5.13;;
15398;SDS011;7797;51.428;6.756;2024-01-30T00:19:41;6.90;;;4.77;;
15398;SDS011;7797;51.428;6.756;2024-01-30T00:22:08;6.03;;;5.10;;
15398;SDS011;7797;51.428;6.756;2024-01-30T00:24:35;8.47;;;5.33;;
15398;SDS011;7797;51.428;6.756;2024-01-30T00:27:02;7.70;;;5.60;;
15398;SDS011;7797;51.428;6.756;2024-01-30T00:29:29;5.87;;;5.27;;
15398;SDS011;7797;51.428;6.756;2024-01-30T00:31:59;5.53;;;5.03;;
15398;SDS011;7797;51.428;6.756;2024-01-30T00:34:26;8.37;;;5.30;;
15398;SDS011;7797;51.428;6.756;2024-01-30T00:36:53;6.50;;;5.13;;
15398;SDS011;7797;51.428;6.756;2024-01-30T00:39:20;7.70;;;5.50;;
15398;SDS011;7797;51.428;6.756;2024-01-30T00:41:47;6.50;;;5.30;;
15398;SDS011;7797;51.428;6.756;2024-01-30T00:44:14;7.93;;;5.47;;
15398;SDS011;7797;51.428;6.756;2024-01-30T00:46:40;7.93;;;5.10;;
15398;SDS011;7797;51.428;6.756;2024-01-30T00:49:07;5.80;;;5.17;;
15398;SDS011;7797;51.428;6.756;2024-01-30T00:51:34;5.93;;;5.27;;
15398;SDS011;7797;51.428;6.756;2024-01-30T00:54:01;6.93;;;5.50;;
15398;SDS011;7797;51.428;6.756;2024-01-30T00:56:28;5.50;;;4.63;;
15398;SDS011;7797;51.428;6.756;2024-01-30T00:58:55;7.03;;;5.07;;
15398;SDS011;7797;51.428;6.756;2024-01-30T01:01:22;6.80;;;5.30;;
15398;SDS011;7797;51.428;6.756;2024-01-30T01:03:49;6.63;;;4.90;;
15398;SDS011;7797;51.428;6.756;2024-01-30T01:06:16;6.00;;;5.40;;
15398;SDS011;7797;51.428;6.756;2024-01-30T01:08:43;8.37;;;5.70;;
15398;SDS011;7797;51.428;6.756;2024-01-30T01:11:10;7.87;;;5.80;;
15398;SDS011;7797;51.428;6.756;2024-01-30T01:13:36;7.23;;;5.40;;
15398;SDS011;7797;51.428;6.756;2024-01-30T01:16:03;6.40;;;5.17;;
15398;SDS011;7797;51.428;6.756;2024-01-30T01:18:30;6.27;;;5.50;;
15398;SDS011;7797;51.428;6.756;2024-01-30T01:20:57;5.70;;;5.10;;
15398;SDS011;7797;51.428;6.756;2024-01-30T01:23:24;10.00;;;5.43;;
15398;SDS011;7797;51.428;6.756;2024-01-30T01:25:51;5.70;;;5.20;;
15398;SDS011;7797;51.428;6.756;2024-01-30T01:28:17;7.37;;;5.10;;
15398;SDS011;7797;51.428;6.756;2024-01-30T01:30:45;6.80;;;5.67;;
15398;SDS011;7797;51.428;6.756;2024-01-30T01:33:12;6.50;;;5.10;;
15398;SDS011;7797;51.428;6.756;2024-01-30T01:35:41;6.73;;;5.23;;
15398;SDS011;7797;51.428;6.756;2024-01-30T01:38:08;6.97;;;5.40;;
15398;SDS011;7797;51.428;6.756;2024-01-30T01:40:35;7.67;;;5.13;;
15398;SDS011;7797;51.428;6.756;2024-01-30T01:43:02;6.20;;;5.60;;
15398;SDS011;7797;51.428;6.756;2024-01-30T01:45:30;7.27;;;5.53;;
15398;SDS011;7797;51.428;6.756;2024-01-30T01:47:56;6.33;;;5.50;;
15398;SDS011;7797;51.428;6.756;2024-01-30T01:50:23;6.97;;;5.63;;
15398;SDS011;7797;51.428;6.756;2024-01-30T01:52:51;6.20;;;5.60;;
15398;SDS011;7797;51.428;6.756;2024-01-30T01:55:19;8.70;;;5.57;;
15398;SDS011;7797;51.428;6.756;2024-01-30T01:57:52;7.70;;;5.73;;
15398;SDS011;7797;51.428;6.756;2024-01-30T02:00:20;6.23;;;5.53;;
15398;SDS011;7797;51.428;6.756;2024-01-30T02:02:47;8.20;;;5.30;;
15398;SDS011;7797;51.428;6.756;2024-01-30T02:05:14;6.27;;;5.70;;
15398;SDS011;7797;51.428;6.756;2024-01-30T02:07:42;6.20;;;5.60;;
15398;SDS011;7797;51.428;6.756;2024-01-30T02:10:09;7.17;;;5.50;;
15398;SDS011;7797;51.428;6.756;2024-01-30T02:12:36;6.70;;;5.10;;
15398;SDS011;7797;51.428;6.756;2024-01-30T02:15:03;9.17;;;5.50;;
15398;SDS011;7797;51.428;6.756;2024-01-30T02:17:31;7.47;;;5.87;;
15398;SDS011;7797;51.428;6.756;2024-01-30T02:19:58;9.03;;;5.90;;
15398;SDS011;7797;51.428;6.756;2024-01-30T02:22:26;6.80;;;5.60;;
15398;SDS011;7797;51.428;6.756;2024-01-30T02:24:53;8.97;;;6.03;;
15398;SDS011;7797;51.428;6.756;2024-01-30T02:27:20;6.53;;;5.87;;
15398;SDS011;7797;51.428;6.756;2024-01-30T02:29:47;6.90;;;5.33;;
15398;SDS011;7797;51.428;6.756;2024-01-30T02:32:13;9.70;;;5.67;;
15398;SDS011;7797;51.428;6.756;2024-01-30T02:34:40;6.10;;;5.50;;
15398;SDS011;7797;51.428;6.756;2024-01-30T02:37:07;6.47;;;5.20;;
15398;SDS011;7797;51.428;6.756;2024-01-30T02:39:34;7.83;;;5.70;;
15398;SDS011;7797;51.428;6.756;2024-01-30T02:42:01;5.80;;;5.30;;
15398;SDS011;7797;51.428;6.756;2024-01-30T02:44:28;6.23;;;5.37;;
15398;SDS011;7797;51.428;6.756;2024-01-30T02:46:54;7.07;;;5.20;;
15398;SDS011;7797;51.428;6.756;2024-01-30T02:49:21;10.60;;;5.80;;
15398;SDS011;7797;51.428;6.756;2024-01-30T02:51:48;7.67;;;5.67;;
15398;SDS011;7797;51.428;6.756;2024-01-30T02:54:15;7.07;;;5.10;;
15398;SDS011;7797;51.428;6.756;2024-01-30T02:56:42;6.47;;;5.40;;
15398;SDS011;7797;51.428;6.756;2024-01-30T02:59:09;7.23;;;5.67;;
15398;SDS011;7797;51.428;6.756;2024-01-30T03:01:42;7.30;;;5.23;;
15398;SDS011;7797;51.428;6.756;2024-01-30T03:04:10;7.73;;;5.60;;
15398;SDS011;7797;51.428;6.756;2024-01-30T03:06:38;9.73;;;6.27;;
15398;SDS011;7797;51.428;6.756;2024-01-30T03:09:05;5.80;;;5.20;;
15398;SDS011;7797;51.428;6.756;2024-01-30T03:11:31;6.17;;;5.30;;
15398;SDS011;7797;51.428;6.756;2024-01-30T03:13:58;6.43;;;5.30;;
15398;SDS011;7797;51.428;6.756;2024-01-30T03:16:25;6.47;;;5.13;;
15398;SDS011;7797;51.428;6.756;2024-01-30T03:18:52;8.57;;;5.30;;
15398;SDS011;7797;51.428;6.756;2024-01-30T03:21:19;6.17;;;5.20;;
15398;SDS011;7797;51.428;6.756;2024-01-30T03:23:46;5.83;;;5.20;;
15398;SDS011;7797;51.428;6.756;2024-01-30T03:26:12;7.13;;;5.40;;
15398;SDS011;7797;51.428;6.756;2024-01-30T03:28:41;6.13;;;5.00;;
15398;SDS011;7797;51.428;6.756;2024-01-30T03:31:07;6.50;;;5.23;;
15398;SDS011;7797;51.428;6.756;2024-01-30T03:33:36;12.17;;;5.43;;
15398;SDS011;7797;51.428;6.756;2024-01-30T03:36:04;5.97;;;5.37;;
15398;SDS011;7797;51.428;6.756;2024-01-30T03:38:31;5.83;;;5.23;;
15398;SDS011;7797;51.428;6.756;2024-01-30T03:40:59;5.90;;;5.30;;
15398;SDS011;7797;51.428;6.756;2024-01-30T03:43:26;6.20;;;5.30;;
15398;SDS011;7797;51.428;6.756;2024-01-30T03:45:55;7.53;;;5.23;;
15398;SDS011;7797;51.428;6.756;2024-01-30T03:48:21;7.13;;;5.27;;
15398;SDS011;7797;51.428;6.756;2024-01-30T03:50:48;9.10;;;5.40;;
15398;SDS011;7797;51.428;6.756;2024-01-30T03:53:15;7.20;;;5.20;;
15398;SDS011;7797;51.428;6.756;2024-01-30T03:55:42;7.23;;;5.33;;
15398;SDS011;7797;51.428;6.756;2024-01-30T03:58:08;6.43;;;5.47;;
15398;SDS011;7797;51.428;6.756;2024-01-30T04:00:35;6.77;;;5.80;;
15398;SDS011;7797;51.428;6.756;2024-01-30T04:03:02;7.03;;;5.80;;
15398;SDS011;7797;51.428;6.756;2024-01-30T04:05:29;6.07;;;5.40;;
15398;SDS011;7797;51.428;6.756;2024-01-30T04:07:56;7.93;;;5.50;;
15398;SDS011;7797;51.428;6.756;2024-01-30T04:10:23;6.80;;;5.33;;
15398;SDS011;7797;51.428;6.756;2024-01-30T04:12:51;5.30;;;4.73;;
15398;SDS011;7797;51.428;6.756;2024-01-30T04:15:18;6.37;;;5.23;;
15398;SDS011;7797;51.428;6.756;2024-01-30T04:17:45;5.90;;;4.87;;
15398;SDS011;7797;51.428;6.756;2024-01-30T04:20:13;5.77;;;5.17;;
15398;SDS011;7797;51.428;6.756;2024-01-30T04:22:44;8.77;;;5.37;;
15398;SDS011;7797;51.428;6.756;2024-01-30T04:25:12;5.47;;;4.97;;
15398;SDS011;7797;51.428;6.756;2024-01-30T04:27:39;6.50;;;5.27;;
15398;SDS011;7797;51.428;6.756;2024-01-30T04:30:06;7.23;;;5.40;;
15398;SDS011;7797;51.428;6.756;2024-01-30T04:32:34;7.10;;;5.27;;
15398;SDS011;7797;51.428;6.756;2024-01-30T04:35:01;7.90;;;5.30;;
15398;SDS011;7797;51.428;6.756;2024-01-30T04:37:32;6.70;;;5.20;;
15398;SDS011;7797;51.428;6.756;2024-01-30T04:39:59;5.77;;;5.10;;
15398;SDS011;7797;51.428;6.756;2024-01-30T04:42:26;6.60;;;5.10;;
15398;SDS011;7797;51.428;6.756;2024-01-30T04:44:53;6.83;;;5.23;;
15398;SDS011;7797;51.428;6.756;2024-01-30T04:47:19;10.37;;;5.30;;
15398;SDS011;7797;51.428;6.756;2024-01-30T04:49:46;6.20;;;4.83;;
15398;SDS011;7797;51.428;6.756;2024-01-30T04:52:13;5.27;;;4.77;;
15398;SDS011;7797;51.428;6.756;2024-01-30T04:54:40;5.27;;;4.77;;
15398;SDS011;7797;51.428;6.756;2024-01-30T04:57:07;7.83;;;4.80;;
15398;SDS011;7797;51.428;6.756;2024-01-30T04:59:36;6.60;;;4.83;;
15398;SDS011;7797;51.428;6.756;2024-01-30T05:02:03;7.03;;;4.93;;
15398;SDS011;7797;51.428;6.756;2024-01-30T05:04:30;6.87;;;5.50;;
15398;SDS011;7797;51.428;6.756;2024-01-30T05:06:56;6.57;;;5.00;;
15398;SDS011;7797;51.428;6.756;2024-01-30T05:09:23;6.00;;;4.87;;
15398;SDS011;7797;51.428;6.756;2024-01-30T05:11:50;5.73;;;5.00;;
15398;SDS011;7797;51.428;6.756;2024-01-30T05:14:17;6.73;;;5.00;;
15398;SDS011;7797;51.428;6.756;2024-01-30T05:16:44;6.30;;;4.70;;
15398;SDS011;7797;51.428;6.756;2024-01-30T05:19:13;7.10;;;5.40;;
15398;SDS011;7797;51.428;6.756;2024-01-30T05:21:41;5.73;;;5.07;;
15398;SDS011;7797;51.428;6.756;2024-01-30T05:24:08;5.73;;;5.13;;
15398;SDS011;7797;51.428;6.756;2024-01-30T05:26:36;7.97;;;5.33;;
15398;SDS011;7797;51.428;6.756;2024-01-30T05:29:03;6.50;;;4.87;;
15398;SDS011;7797;51.428;6.756;2024-01-30T05:31:31;6.90;;;4.73;;
15398;SDS011;7797;51.428;6.756;2024-01-30T05:33:57;6.93;;;5.27;;
15398;SDS011;7797;51.428;6.756;2024-01-30T05:36:24;6.20;;;5.37;;
15398;SDS011;7797;51.428;6.756;2024-01-30T05:38:51;6.47;;;4.80;;
15398;SDS011;7797;51.428;6.756;2024-01-30T05:41:18;6.20;;;4.73;;
15398;SDS011;7797;51.428;6.756;2024-01-30T05:43:45;5.90;;;4.63;;
15398;SDS011;7797;51.428;6.756;2024-01-30T05:46:12;6.93;;;5.43;;
15398;SDS011;7797;51.428;6.756;2024-01-30T05:48:39;6.47;;;5.17;;
15398;SDS011;7797;51.428;6.756;2024-01-30T05:51:07;8.20;;;5.10;;
15398;SDS011;7797;51.428;6.756;2024-01-30T05:53:34;6.20;;;4.70;;
15398;SDS011;7797;51.428;6.756;2024-01-30T05:56:02;8.27;;;5.23;;
15398;SDS011;7797;51.428;6.756;2024-01-30T05:58:29;5.23;;;4.73;;
15398;SDS011;7797;51.428;6.756;2024-01-30T06:01:06;5.73;;;4.90;;
15398;SDS011;7797;51.428;6.756;2024-01-30T06:03:35;9.90;;;5.40;;
15398;SDS011;7797;51.428;6.756;2024-01-30T06:06:02;6.50;;;4.83;;
15398;SDS011;7797;51.428;6.756;2024-01-30T06:08:28;6.83;;;4.90;;
15398;SDS011;7797;51.428;6.756;2024-01-30T06:10:55;7.63;;;5.20;;
15398;SDS011;7797;51.428;6.756;2024-01-30T06:13:22;7.53;;;4.87;;
15398;SDS011;7797;51.428;6.756;2024-01-30T06:15:49;7.57;;;4.73;;
15398;SDS011;7797;51.428;6.756;2024-01-30T06:18:16;5.13;;;4.70;;
15398;SDS011;7797;51.428;6.756;2024-01-30T06:20:43;6.33;;;4.83;;
15398;SDS011;7797;51.428;6.756;2024-01-30T06:23:10;6.37;;;4.90;;
15398;SDS011;7797;51.428;6.756;2024-01-30T06:25:36;7.77;;;5.17;;
15398;SDS011;7797;51.428;6.756;2024-01-30T06:28:03;5.90;;;4.80;;
15398;SDS011;7797;51.428;6.756;2024-01-30T06:30:30;7.17;;;4.90;;
15398;SDS011;7797;51.428;6.756;2024-01-30T06:32:57;6.33;;;4.43;;
15398;SDS011;7797;51.428;6.756;2024-01-30T06:35:24;6.23;;;5.03;;
15398;SDS011;7797;51.428;6.756;2024-01-30T06:37:51;7.77;;;5.10;;
15398;SDS011;7797;51.428;6.756;2024-01-30T06:40:17;6.23;;;4.97;;
15398;SDS011;7797;51.428;6.756;2024-01-30T06:42:44;7.50;;;4.87;;
15398;SDS011;7797;51.428;6.756;2024-01-30T06:45:11;7.00;;;5.20;;
15398;SDS011;7797;51.428;6.756;2024-01-30T06:47:38;6.27;;;5.17;;
15398;SDS011;7797;51.428;6.756;2024-01-30T06:50:05;6.70;;;5.00;;
15398;SDS011;7797;51.428;6.756;2024-01-30T06:52:32;6.00;;;4.67;;
15398;SDS011;7797;51.428;6.756;2024-01-30T06:54:59;6.80;;;5.07;;
15398;SDS011;7797;51.428;6.756;2024-01-30T06:57:26;5.70;;;5.10;;
15398;SDS011;7797;51.428;6.756;2024-01-30T06:59:54;6.43;;;5.13;;
15398;SDS011;7797;51.428;6.756;2024-01-30T07:02:21;5.97;;;5.00;;
15398;SDS011;7797;51.428;6.756;2024-01-30T07:04:48;6.40;;;4.80;;
15398;SDS011;7797;51.428;6.756;2024-01-30T07:07:16;5.60;;;4.90;;
15398;SDS011;7797;51.428;6.756;2024-01-30T07:09:43;7.23;;;5.00;;
15398;SDS011;7797;51.428;6.756;2024-01-30T07:12:15;6.43;;;5.53;;
15398;SDS011;7797;51.428;6.756;2024-01-30T07:14:42;5.80;;;5.03;;
15398;SDS011;7797;51.428;6.756;2024-01-30T07:17:09;5.47;;;4.97;;
15398;SDS011;7797;51.428;6.756;2024-01-30T07:19:36;5.70;;;4.77;;
15398;SDS011;7797;51.428;6.756;2024-01-30T07:22:03;6.33;;;5.27;;
15398;SDS011;7797;51.428;6.756;2024-01-30T07:24:30;7.17;;;5.73;;
15398;SDS011;7797;51.428;6.756;2024-01-30T07:26:57;10.80;;;5.63;;
15398;SDS011;7797;51.428;6.756;2024-01-30T07:29:24;7.57;;;4.97;;
15398;SDS011;7797;51.428;6.756;2024-01-30T07:31:51;12.17;;;5.03;;
15398;SDS011;7797;51.428;6.756;2024-01-30T07:34:17;6.73;;;4.80;;
15398;SDS011;7797;51.428;6.756;2024-01-30T07:36:44;6.07;;;5.10;;
15398;SDS011;7797;51.428;6.756;2024-01-30T07:39:12;6.47;;;5.20;;
15398;SDS011;7797;51.428;6.756;2024-01-30T07:41:39;5.57;;;4.80;;
15398;SDS011;7797;51.428;6.756;2024-01-30T07:44:06;5.63;;;4.97;;
15398;SDS011;7797;51.428;6.756;2024-01-30T07:46:32;5.27;;;4.77;;
15398;SDS011;7797;51.428;6.756;2024-01-30T07:48:59;5.60;;;4.83;;
15398;SDS011;7797;51.428;6.756;2024-01-30T07:51:26;8.17;;;5.07;;
15398;SDS011;7797;51.428;6.756;2024-01-30T07:53:55;8.10;;;4.70;;
15398;SDS011;7797;51.428;6.756;2024-01-30T07:56:23;6.17;;;4.83;;
15398;SDS011;7797;51.428;6.756;2024-01-30T07:58:50;5.07;;;4.57;;
15398;SDS011;7797;51.428;6.756;2024-01-30T08:01:17;6.47;;;5.70;;
15398;SDS011;7797;51.428;6.756;2024-01-30T08:03:45;7.07;;;5.60;;
15398;SDS011;7797;51.428;6.756;2024-01-30T08:06:17;8.03;;;5.53;;
15398;SDS011;7797;51.428;6.756;2024-01-30T08:08:43;6.50;;;5.20;;
15398;SDS011;7797;51.428;6.756;2024-01-30T08:11:10;8.33;;;4.90;;
15398;SDS011;7797;51.428;6.756;2024-01-30T08:13:37;7.03;;;5.30;;
15398;SDS011;7797;51.428;6.756;2024-01-30T08:16:04;7.07;;;4.80;;
15398;SDS011;7797;51.428;6.756;2024-01-30T08:18:31;5.83;;;5.23;;
15398;SDS011;7797;51.428;6.756;2024-01-30T08:20:58;6.77;;;5.60;;
15398;SDS011;7797;51.428;6.756;2024-01-30T08:23:25;7.17;;;5.27;;
15398;SDS011;7797;51.428;6.756;2024-01-30T08:25:51;6.30;;;5.20;;
15398;SDS011;7797;51.428;6.756;2024-01-30T08:28:18;7.70;;;5.80;;
15398;SDS011;7797;51.428;6.756;2024-01-30T08:30:47;9.23;;;6.03;;
15398;SDS011;7797;51.428;6.756;2024-01-30T08:33:14;7.07;;;5.50;;
15398;SDS011;7797;51.428;6.756;2024-01-30T08:35:41;7.50;;;5.43;;
15398;SDS011;7797;51.428;6.756;2024-01-30T08:38:08;6.90;;;5.57;;
15398;SDS011;7797;51.428;6.756;2024-01-30T08:40:39;7.60;;;5.47;;
15398;SDS011;7797;51.428;6.756;2024-01-30T08:43:06;7.10;;;4.80;;
15398;SDS011;7797;51.428;6.756;2024-01-30T08:45:33;6.00;;;5.40;;
15398;SDS011;7797;51.428;6.756;2024-01-30T08:47:59;6.50;;;4.67;;
15398;SDS011;7797;51.428;6.756;2024-01-30T08:50:28;5.90;;;5.27;;
15398;SDS011;7797;51.428;6.756;2024-01-30T08:52:54;6.83;;;5.23;;
15398;SDS011;7797;51.428;6.756;2024-01-30T08:55:21;6.93;;;5.20;;
15398;SDS011;7797;51.428;6.756;2024-01-30T08:57:48;6.13;;;5.53;;
15398;SDS011;7797;51.428;6.756;2024-01-30T09:00:15;7.97;;;5.67;;
15398;SDS011;7797;51.428;6.756;2024-01-30T09:02:42;7.27;;;5.60;;
15398;SDS011;7797;51.428;6.756;2024-01-30T09:05:09;6.13;;;5.50;;
15398;SDS011;7797;51.428;6.756;2024-01-30T09:07:37;7.07;;;5.67;;
15398;SDS011;7797;51.428;6.756;2024-01-30T09:10:04;5.90;;;5.23;;
15398;SDS011;7797;51.428;6.756;2024-01-30T09:12:32;7.10;;;5.73;;
15398;SDS011;7797;51.428;6.756;2024-01-30T09:14:59;10.13;;;5.97;;
15398;SDS011;7797;51.428;6.756;2024-01-30T09:17:26;7.00;;;6.30;;
15398;SDS011;7797;51.428;6.756;2024-01-30T09:19:53;6.10;;;5.50;;
15398;SDS011;7797;51.428;6.756;2024-01-30T09:22:20;7.40;;;6.13;;
15398;SDS011;7797;51.428;6.756;2024-01-30T09:24:47;6.33;;;5.67;;
15398;SDS011;7797;51.428;6.756;2024-01-30T09:27:14;7.47;;;5.93;;
15398;SDS011;7797;51.428;6.756;2024-01-30T09:29:40;6.97;;;5.63;;
15398;SDS011;7797;51.428;6.756;2024-01-30T09:32:07;7.87;;;5.87;;
15398;SDS011;7797;51.428;6.756;2024-01-30T09:34:35;7.07;;;5.70;;
15398;SDS011;7797;51.428;6.756;2024-01-30T09:37:02;6.53;;;5.40;;
15398;SDS011;7797;51.428;6.756;2024-01-30T09:39:29;7.37;;;6.10;;
15398;SDS011;7797;51.428;6.756;2024-01-30T09:42:15;8.47;;;5.93;;
15398;SDS011;7797;51.428;6.756;2024-01-30T09:44:47;6.77;;;5.40;;
15398;SDS011;7797;51.428;6.756;2024-01-30T09:47:18;8.87;;;6.10;;
15398;SDS011;7797;51.428;6.756;2024-01-30T09:49:45;9.37;;;5.50;;
15398;SDS011;7797;51.428;6.756;2024-01-30T09:52:12;6.50;;;5.73;;
15398;SDS011;7797;51.428;6.756;2024-01-30T09:54:39;7.70;;;6.20;;
15398;SDS011;7797;51.428;6.756;2024-01-30T09:57:06;7.23;;;5.57;;
15398;SDS011;7797;51.428;6.756;2024-01-30T09:59:34;6.50;;;5.30;;
15398;SDS011;7797;51.428;6.756;2024-01-30T10:02:00;9.13;;;6.73;;
15398;SDS011;7797;51.428;6.756;2024-01-30T10:04:27;8.63;;;6.20;;
15398;SDS011;7797;51.428;6.756;2024-01-30T10:06:54;9.73;;;6.47;;
15398;SDS011;7797;51.428;6.756;2024-01-30T10:09:21;7.60;;;5.70;;
15398;SDS011;7797;51.428;6.756;2024-01-30T10:11:48;9.70;;;6.13;;
15398;SDS011;7797;51.428;6.756;2024-01-30T10:14:15;10.67;;;6.40;;
15398;SDS011;7797;51.428;6.756;2024-01-30T10:16:42;7.90;;;6.07;;
15398;SDS011;7797;51.428;6.756;2024-01-30T10:19:09;8.43;;;5.97;;
15398;SDS011;7797;51.428;6.756;2024-01-30T10:21:36;11.17;;;6.30;;
15398;SDS011;7797;51.428;6.756;2024-01-30T10:24:03;6.97;;;5.80;;
15398;SDS011;7797;51.428;6.756;2024-01-30T10:26:30;9.70;;;5.70;;
15398;SDS011;7797;51.428;6.756;2024-01-30T10:29:00;7.80;;;6.40;;
15398;SDS011;7797;51.428;6.756;2024-01-30T10:31:27;7.50;;;6.03;;
15398;SDS011;7797;51.428;6.756;2024-01-30T10:33:54;10.60;;;7.00;;
15398;SDS011;7797;51.428;6.756;2024-01-30T10:36:39;7.13;;;5.77;;
15398;SDS011;7797;51.428;6.756;2024-01-30T10:39:09;8.23;;;6.50;;
15398;SDS011;7797;51.428;6.756;2024-01-30T10:41:39;8.93;;;6.20;;
15398;SDS011;7797;51.428;6.756;2024-01-30T10:44:10;9.40;;;5.93;;
15398;SDS011;7797;51.428;6.756;2024-01-30T10:46:38;8.60;;;6.10;;
15398;SDS011;7797;51.428;6.756;2024-01-30T10:49:06;8.23;;;5.97;;
15398;SDS011;7797;51.428;6.756;2024-01-30T10:51:33;8.60;;;6.47;;
15398;SDS011;7797;51.428;6.756;2024-01-30T10:54:02;6.97;;;6.00;;
15398;SDS011;7797;51.428;6.756;2024-01-30T10:56:30;9.13;;;6.17;;
15398;SDS011;7797;51.428;6.756;2024-01-30T10:58:59;10.53;;;6.50;;
15398;SDS011;7797;51.428;6.756;2024-01-30T11:01:26;7.93;;;5.80;;
15398;SDS011;7797;51.428;6.756;2024-01-30T11:03:54;11.10;;;5.67;;
15398;SDS011;7797;51.428;6.756;2024-01-30T11:06:24;8.93;;;6.10;;
15398;SDS011;7797;51.428;6.756;2024-01-30T11:09:04;8.33;;;6.07;;
15398;SDS011;7797;51.428;6.756;2024-01-30T11:11:49;8.80;;;6.27;;
15398;SDS011;7797;51.428;6.756;2024-01-30T11:14:29;8.90;;;6.67;;
15398;SDS011;7797;51.428;6.756;2024-01-30T11:16:57;8.10;;;5.93;;
15398;SDS011;7797;51.428;6.756;2024-01-30T11:19:30;11.20;;;6.93;;
15398;SDS011;7797;51.428;6.756;2024-01-30T11:21:58;7.30;;;6.60;;
15398;SDS011;7797;51.428;6.756;2024-01-30T11:24:25;9.20;;;6.50;;
15398;SDS011;7797;51.428;6.756;2024-01-30T11:26:56;11.97;;;6.27;;
15398;SDS011;7797;51.428;6.756;2024-01-30T11:29:25;7.33;;;6.03;;
15398;SDS011;7797;51.428;6.756;2024-01-30T11:31:53;10.30;;;6.53;;
15398;SDS011;7797;51.428;6.756;2024-01-30T11:34:20;7.87;;;6.17;;
15398;SDS011;7797;51.428;6.756;2024-01-30T11:36:52;7.43;;;6.43;;
15398;SDS011;7797;51.428;6.756;2024-01-30T11:39:21;8.27;;;6.27;;
15398;SDS011;7797;51.428;6.756;2024-01-30T11:41:50;9.57;;;6.80;;
15398;SDS011;7797;51.428;6.756;2024-01-30T11:44:21;9.00;;;6.80;;
15398;SDS011;7797;51.428;6.756;2024-01-30T11:46:49;9.97;;;6.57;;
15398;SDS011;7797;51.428;6.756;2024-01-30T11:49:16;10.73;;;6.80;;
15398;SDS011;7797;51.428;6.756;2024-01-30T11:51:47;9.80;;;6.57;;
15398;SDS011;7797;51.428;6.756;2024-01-30T11:54:17;9.70;;;6.97;;
15398;SDS011;7797;51.428;6.756;2024-01-30T11:56:44;8.67;;;6.53;;
15398;SDS011;7797;51.428;6.756;2024-01-30T11:59:11;11.43;;;7.20;;
15398;SDS011;7797;51.428;6.756;2024-01-30T12:01:38;11.03;;;7.03;;
15398;SDS011;7797;51.428;6.756;2024-01-30T12:04:05;9.33;;;6.00;;
15398;SDS011;7797;51.428;6.756;2024-01-30T12:06:37;9.70;;;6.70;;
15398;SDS011;7797;51.428;6.756;2024-01-30T12:09:04;11.70;;;5.80;;
15398;SDS011;7797;51.428;6.756;2024-01-30T12:11:30;7.90;;;5.97;;
15398;SDS011;7797;51.428;6.756;2024-01-30T12:13:57;7.73;;;5.63;;
15398;SDS011;7797;51.428;6.756;2024-01-30T12:16:24;6.43;;;5.77;;
15398;SDS011;7797;51.428;6.756;2024-01-30T12:18:58;8.73;;;5.90;;
15398;SDS011;7797;51.428;6.756;2024-01-30T12:21:26;7.77;;;5.70;;
15398;SDS011;7797;51.428;6.756;2024-01-30T12:23:53;8.17;;;5.87;;
15398;SDS011;7797;51.428;6.756;2024-01-30T12:26:20;8.90;;;6.30;;
15398;SDS011;7797;51.428;6.756;2024-01-30T12:28:47;8.20;;;5.87;;
15398;SDS011;7797;51.428;6.756;2024-01-30T12:31:15;7.57;;;5.87;;
15398;SDS011;7797;51.428;6.756;2024-01-30T12:33:42;10.50;;;6.20;;
15398;SDS011;7797;51.428;6.756;2024-01-30T12:36:09;10.40;;;6.33;;
15398;SDS011;7797;51.428;6.756;2024-01-30T12:38:38;7.30;;;6.27;;
15398;SDS011;7797;51.428;6.756;2024-01-30T12:41:06;12.47;;;6.10;;
15398;SDS011;7797;51.428;6.756;2024-01-30T12:43:33;7.30;;;5.47;;
15398;SDS011;7797;51.428;6.756;2024-01-30T12:46:04;6.73;;;5.13;;
15398;SDS011;7797;51.428;6.756;2024-01-30T12:48:32;9.37;;;6.37;;
15398;SDS011;7797;51.428;6.756;2024-01-30T12:50:59;9.00;;;6.27;;
15398;SDS011;7797;51.428;6.756;2024-01-30T12:53:26;8.73;;;6.57;;
15398;SDS011;7797;51.428;6.756;2024-01-30T12:55:53;9.70;;;6.03;;
15398;SDS011;7797;51.428;6.756;2024-01-30T12:58:21;9.90;;;6.07;;
15398;SDS011;7797;51.428;6.756;2024-01-30T13:00:48;10.10;;;7.00;;
15398;SDS011;7797;51.428;6.756;2024-01-30T13:03:15;10.73;;;6.63;;
15398;SDS011;7797;51.428;6.756;2024-01-30T13:05:42;11.37;;;6.43;;
15398;SDS011;7797;51.428;6.756;2024-01-30T13:08:09;8.77;;;6.40;;
15398;SDS011;7797;51.428;6.756;2024-01-30T13:10:36;7.80;;;5.73;;
15398;SDS011;7797;51.428;6.756;2024-01-30T13:13:03;7.43;;;5.60;;
15398;SDS011;7797;51.428;6.756;2024-01-30T13:15:30;12.07;;;6.60;;
15398;SDS011;7797;51.428;6.756;2024-01-30T13:17:56;12.23;;;6.67;;
15398;SDS011;7797;51.428;6.756;2024-01-30T13:20:23;8.27;;;6.20;;
15398;SDS011;7797;51.428;6.756;2024-01-30T13:22:50;10.87;;;6.40;;
15398;SDS011;7797;51.428;6.756;2024-01-30T13:25:17;11.90;;;6.13;;
15398;SDS011;7797;51.428;6.756;2024-01-30T13:27:44;8.03;;;6.17;;
15398;SDS011;7797;51.428;6.756;2024-01-30T13:30:11;9.27;;;5.80;;
15398;SDS011;7797;51.428;6.756;2024-01-30T13:32:38;10.27;;;5.80;;
15398;SDS011;7797;51.428;6.756;2024-01-30T13:35:05;9.73;;;5.40;;
15398;SDS011;7797;51.428;6.756;2024-01-30T13:37:32;9.83;;;6.17;;
15398;SDS011;7797;51.428;6.756;2024-01-30T13:39:59;10.73;;;6.40;;
15398;SDS011;7797;51.428;6.756;2024-01-30T13:42:30;9.77;;;5.77;;
15398;SDS011;7797;51.428;6.756;2024-01-30T13:44:56;7.90;;;5.27;;
15398;SDS011;7797;51.428;6.756;2024-01-30T13:47:23;6.30;;;5.47;;
15398;SDS011;7797;51.428;6.756;2024-01-30T13:49:50;7.63;;;5.33;;
15398;SDS011;7797;51.428;6.756;2024-01-30T13:52:19;11.00;;;5.93;;
15398;SDS011;7797;51.428;6.756;2024-01-30T13:54:47;5.97;;;5.10;;
15398;SDS011;7797;51.428;6.756;2024-01-30T13:57:14;8.27;;;5.73;;
15398;SDS011;7797;51.428;6.756;2024-01-30T13:59:41;8.47;;;5.60;;
15398;SDS011;7797;51.428;6.756;2024-01-30T14:02:08;7.97;;;5.70;;
15398;SDS011;7797;51.428;6.756;2024-01-30T14:04:37;7.80;;;5.30;;
15398;SDS011;7797;51.428;6.756;2024-01-30T14:07:04;8.13;;;5.33;;
15398;SDS011;7797;51.428;6.756;2024-01-30T14:09:32;7.50;;;5.53;;
15398;SDS011;7797;51.428;6.756;2024-01-30T14:12:00;8.83;;;5.20;;
15398;SDS011;7797;51.428;6.756;2024-01-30T14:14:27;7.63;;;5.93;;
15398;SDS011;7797;51.428;6.756;2024-01-30T14:16:54;7.67;;;5.90;;
15398;SDS011;7797;51.428;6.756;2024-01-30T14:19:21;6.00;;;5.40;;
15398;SDS011;7797;51.428;6.756;2024-01-30T14:21:48;7.43;;;5.50;;
15398;SDS011;7797;51.428;6.756;2024-01-30T14:24:15;7.50;;;5.27;;
15398;SDS011;7797;51.428;6.756;2024-01-30T14:26:42;9.03;;;5.73;;
15398;SDS011;7797;51.428;6.756;2024-01-30T14:29:09;7.60;;;5.50;;
15398;SDS011;7797;51.428;6.756;2024-01-30T14:31:36;7.27;;;5.50;;
15398;SDS011;7797;51.428;6.756;2024-01-30T14:34:03;10.13;;;5.47;;
15398;SDS011;7797;51.428;6.756;2024-01-30T14:36:29;7.17;;;5.30;;
15398;SDS011;7797;51.428;6.756;2024-01-30T14:38:57;5.47;;;4.90;;
15398;SDS011;7797;51.428;6.756;2024-01-30T14:41:24;11.53;;;5.23;;
15398;SDS011;7797;51.428;6.756;2024-01-30T14:43:51;9.30;;;5.10;;
15398;SDS011;7797;51.428;6.756;2024-01-30T14:46:18;7.67;;;4.60;;
15398;SDS011;7797;51.428;6.756;2024-01-30T14:48:45;7.60;;;4.97;;
15398;SDS011;7797;51.428;6.756;2024-01-30T14:51:12;9.73;;;4.73;;
15398;SDS011;7797;51.428;6.756;2024-01-30T14:53:39;6.37;;;4.10;;
15398;SDS011;7797;51.428;6.756;2024-01-30T14:56:06;5.13;;;4.20;;
15398;SDS011;7797;51.428;6.756;2024-01-30T14:58:33;5.43;;;4.10;;
15398;SDS011;7797;51.428;6.756;2024-01-30T15:01:01;4.53;;;3.60;;